Jeffris, Wisconsin
Current Conditions -  °F | °C
As of 9:55 PM on Thursday 27 Nov 2014 (Local Time) from KRRL Reporting Station
Clear Clear  
Wind Chill: -20°   Ceiling: Unl
Heat Index: -20°   Visibility: 10mi
Dew Point: -22°   Wind: 0mph
Humidity: 84%   Direction: NA
Pressure: 30.28"   Gusts: NA
Location:  45.3595°N, 89.45°W
Report Text: KRRL 280355Z AUTO 00000KT 10SM CLR M20/M22 A3028 RMK AO2 T12031223
Loading
Personal Weather Stations






























Interactive Weather Map New forecast layout! Learn more

10-Day Weather Forecast

Advertisements
Track Severe Weather on mobile